createdAt,value
2018-12-08T00:00:19.886Z,38.93
2018-12-08T00:02:50.250Z,38.73
2018-12-08T00:05:19.710Z,39.60
2018-12-08T00:07:48.873Z,40.27
2018-12-08T00:10:17.895Z,40.60
2018-12-08T00:12:47.002Z,40.33
2018-12-08T00:15:16.193Z,40.77
2018-12-08T00:17:45.245Z,41.20
2018-12-08T00:20:14.255Z,40.67
2018-12-08T00:22:43.303Z,41.50
2018-12-08T00:25:12.412Z,40.20
2018-12-08T00:27:41.460Z,40.87
2018-12-08T00:30:21.807Z,41.93
2018-12-08T00:32:50.819Z,41.67
2018-12-08T00:35:19.985Z,41.63
2018-12-08T00:37:49.248Z,40.47
2018-12-08T00:40:18.327Z,39.50
2018-12-08T00:42:47.526Z,41.30
2018-12-08T00:45:16.577Z,41.07
2018-12-08T00:47:45.587Z,41.27
2018-12-08T00:50:14.649Z,40.50
2018-12-08T00:52:44.082Z,39.27
2018-12-08T00:55:13.628Z,40.10
2018-12-08T00:57:42.945Z,38.80
2018-12-08T01:00:12.179Z,39.13
2018-12-08T01:02:43.201Z,39.87
2018-12-08T01:05:12.408Z,40.30
2018-12-08T01:07:41.600Z,38.50
2018-12-08T01:10:10.915Z,37.47
2018-12-08T01:12:39.952Z,37.20
2018-12-08T01:15:09.157Z,38.13
2018-12-08T01:17:38.211Z,36.40
2018-12-08T01:20:08.109Z,37.57
2018-12-08T01:22:37.215Z,35.57
2018-12-08T01:25:06.651Z,34.03
2018-12-08T01:27:37.301Z,35.03
2018-12-08T01:30:07.304Z,35.47
2018-12-08T01:32:36.321Z,34.17
2018-12-08T01:35:06.104Z,33.63
2018-12-08T01:37:35.214Z,32.90
2018-12-08T01:40:05.220Z,32.43
2018-12-08T01:42:34.216Z,31.43
2018-12-08T01:45:03.709Z,31.20
2018-12-08T01:47:32.729Z,32.60
2018-12-08T01:50:01.917Z,34.07
2018-12-08T01:52:31.673Z,31.33
2018-12-08T01:55:00.736Z,31.53
2018-12-08T01:57:29.778Z,29.57
2018-12-08T01:59:58.833Z,30.07
2018-12-08T02:02:27.857Z,30.03
2018-12-08T02:04:57.231Z,29.30
2018-12-08T02:07:26.283Z,30.77
2018-12-08T02:09:55.495Z,28.47
2018-12-08T02:12:24.493Z,27.50
2018-12-08T02:14:53.512Z,27.40
2018-12-08T02:17:22.565Z,25.23
2018-12-08T02:19:51.579Z,25.10
2018-12-08T02:22:20.610Z,25.37
2018-12-08T02:24:56.302Z,25.70
2018-12-08T02:27:25.461Z,24.03
2018-12-08T02:29:54.492Z,24.17
2018-12-08T02:32:23.582Z,23.77
2018-12-08T02:34:52.755Z,22.13
2018-12-08T02:37:21.832Z,21.60
2018-12-08T02:39:51.079Z,21.57
2018-12-08T02:42:20.127Z,21.10
2018-12-08T02:44:49.154Z,19.97
2018-12-08T02:47:18.369Z,19.47
2018-12-08T02:49:47.403Z,18.93
2018-12-08T02:52:16.492Z,19.40
2018-12-08T02:54:45.508Z,17.97
2018-12-08T02:57:14.565Z,18.50
2018-12-08T02:59:43.753Z,18.10
2018-12-08T03:02:12.846Z,17.93
2018-12-08T03:04:41.896Z,18.37
2018-12-08T03:07:11.210Z,18.27
2018-12-08T03:09:40.418Z,19.33
2018-12-08T03:12:09.580Z,18.47
2018-12-08T03:14:38.773Z,17.83
2018-12-08T03:17:07.860Z,18.47
2018-12-08T03:19:36.862Z,17.90
2018-12-08T03:22:06.023Z,17.50
2018-12-08T03:24:35.058Z,18.20
2018-12-08T03:27:04.091Z,17.00
2018-12-08T03:29:33.722Z,15.80
2018-12-08T03:32:02.783Z,16.83
2018-12-08T03:34:31.827Z,16.07
2018-12-08T03:37:00.867Z,16.07
2018-12-08T03:39:29.878Z,16.07
2018-12-08T03:41:58.958Z,15.07
2018-12-08T03:44:28.038Z,15.00
2018-12-08T03:46:57.290Z,14.63
2018-12-08T03:49:26.509Z,14.43
2018-12-08T03:51:55.540Z,14.80
2018-12-08T03:54:24.588Z,15.10
2018-12-08T03:56:53.627Z,14.77
2018-12-08T03:59:22.723Z,14.97
2018-12-08T04:01:51.889Z,14.87
2018-12-08T04:04:22.092Z,15.03
2018-12-08T04:06:51.141Z,14.50
2018-12-08T04:09:20.216Z,14.93
2018-12-08T04:11:49.255Z,15.63
2018-12-08T04:14:18.323Z,15.13
2018-12-08T04:16:47.363Z,16.50
2018-12-08T04:19:16.384Z,14.77
2018-12-08T04:21:45.425Z,14.40
2018-12-08T04:24:14.451Z,14.43
2018-12-08T04:26:43.662Z,14.00
2018-12-08T04:29:12.697Z,14.17
2018-12-08T04:31:41.779Z,13.50
2018-12-08T04:34:10.794Z,14.67
2018-12-08T04:36:39.870Z,14.13
2018-12-08T04:39:08.927Z,14.67
2018-12-08T04:41:40.340Z,14.50
2018-12-08T04:44:09.445Z,14.57
2018-12-08T04:46:38.501Z,16.37
2018-12-08T04:49:07.508Z,14.70
2018-12-08T04:51:36.535Z,15.47
2018-12-08T04:54:05.625Z,15.87
2018-12-08T04:56:34.663Z,17.53
2018-12-08T04:59:03.789Z,18.00
2018-12-08T05:01:32.806Z,17.27
2018-12-08T05:04:01.847Z,18.07
2018-12-08T05:06:31.162Z,18.77
2018-12-08T05:09:00.497Z,20.60
2018-12-08T05:11:29.526Z,19.37
2018-12-08T05:13:58.587Z,19.73
2018-12-08T05:16:28.032Z,20.37
2018-12-08T05:18:57.365Z,20.70
2018-12-08T05:21:26.657Z,20.33
2018-12-08T05:23:55.818Z,21.73
2018-12-08T05:26:24.856Z,20.87
2018-12-08T05:28:53.870Z,20.53
2018-12-08T05:31:22.910Z,20.83
2018-12-08T05:33:51.984Z,20.73
2018-12-08T05:36:21.015Z,21.30
2018-12-08T05:38:50.117Z,22.33
2018-12-08T05:41:19.117Z,22.13
2018-12-08T05:43:48.270Z,20.53
2018-12-08T05:46:17.349Z,20.63
2018-12-08T05:48:46.388Z,21.23
2018-12-08T05:51:15.416Z,21.40
2018-12-08T05:53:44.517Z,21.13
2018-12-08T05:56:13.770Z,21.33
2018-12-08T05:58:42.818Z,20.87
2018-12-08T06:01:12.012Z,21.33
2018-12-08T06:03:41.132Z,20.93
2018-12-08T06:06:10.187Z,20.67
2018-12-08T06:08:39.227Z,20.90
2018-12-08T06:11:08.240Z,21.43
2018-12-08T06:13:37.344Z,20.70
2018-12-08T06:16:06.405Z,21.53
2018-12-08T06:18:35.500Z,20.93
2018-12-08T06:21:04.538Z,21.10
2018-12-08T06:23:33.631Z,22.87
2018-12-08T06:26:21.274Z,21.87
2018-12-08T06:28:53.196Z,21.10
2018-12-08T06:31:22.474Z,20.57
2018-12-08T06:33:52.078Z,20.30
2018-12-08T06:36:21.137Z,21.93
2018-12-08T06:38:50.193Z,21.10
2018-12-08T06:41:19.286Z,20.57
2018-12-08T06:43:48.291Z,21.20
2018-12-08T06:46:17.321Z,21.33
2018-12-08T06:48:46.710Z,21.23
2018-12-08T06:51:15.742Z,21.87
2018-12-08T06:53:44.766Z,22.37
2018-12-08T06:58:53.824Z,21.53
2018-12-08T07:01:22.853Z,21.33
2018-12-08T07:03:51.902Z,22.00
2018-12-08T07:06:20.964Z,20.97
2018-12-08T07:08:49.974Z,20.33
2018-12-08T07:11:19.072Z,21.10
2018-12-08T07:13:48.237Z,21.70
2018-12-08T07:16:17.366Z,21.63
2018-12-08T07:18:46.420Z,21.27
2018-12-08T07:21:15.515Z,22.67
2018-12-08T07:23:44.665Z,21.57
2018-12-08T07:26:13.686Z,22.47
2018-12-08T07:28:42.844Z,21.57
2018-12-08T07:31:11.872Z,22.07
2018-12-08T07:33:40.937Z,20.27
2018-12-08T07:36:10.026Z,21.00
2018-12-08T07:38:39.058Z,21.37
2018-12-08T07:41:08.154Z,20.57
2018-12-08T07:43:37.217Z,19.40
2018-12-08T07:46:06.443Z,20.10
2018-12-08T07:48:36.718Z,21.00
2018-12-08T07:51:05.843Z,19.87
2018-12-08T07:53:35.031Z,19.77
2018-12-08T07:56:04.095Z,19.87
2018-12-08T07:58:33.079Z,19.03
2018-12-08T08:01:02.495Z,18.13
2018-12-08T08:03:33.359Z,16.67
2018-12-08T08:06:02.509Z,16.37
2018-12-08T08:08:32.825Z,14.97
2018-12-08T08:11:01.863Z,11.17
2018-12-08T08:13:32.201Z,12.23
2018-12-08T08:16:01.351Z,9.53
2018-12-08T08:18:30.793Z,8.77
2018-12-08T08:20:59.849Z,8.53
2018-12-08T08:23:29.386Z,7.77
2018-12-08T08:25:58.833Z,6.93
2018-12-08T08:28:27.904Z,8.17
2018-12-08T08:30:57.022Z,8.83
2018-12-08T08:33:26.154Z,8.13
2018-12-08T08:35:55.217Z,8.83
2018-12-08T08:38:24.447Z,10.03
2018-12-08T08:40:53.504Z,8.70
2018-12-08T08:43:22.788Z,7.13
2018-12-08T08:45:52.212Z,4.80
2018-12-08T08:48:21.759Z,3.27
2018-12-08T08:50:50.936Z,2.60
2018-12-08T08:53:22.446Z,2.83
2018-12-08T08:55:51.734Z,2.67
2018-12-08T08:58:21.699Z,2.67
2018-12-08T09:00:52.213Z,2.60
2018-12-08T09:03:21.674Z,2.17
2018-12-08T09:05:50.750Z,2.10
2018-12-08T09:08:19.880Z,2.10
2018-12-08T09:10:49.001Z,2.53
2018-12-08T09:13:18.094Z,2.77
2018-12-08T09:15:49.877Z,3.00
2018-12-08T09:18:19.264Z,2.10
2018-12-08T09:20:48.300Z,2.73
2018-12-08T09:23:17.438Z,2.83
2018-12-08T09:25:46.498Z,2.40
2018-12-08T09:28:15.884Z,2.70
2018-12-08T09:30:45.216Z,2.23
2018-12-08T09:33:14.342Z,2.50
2018-12-08T09:35:43.420Z,2.83
2018-12-08T09:38:12.565Z,2.60
2018-12-08T09:40:41.669Z,2.57
2018-12-08T09:43:10.765Z,3.20
2018-12-08T09:45:41.978Z,3.17
2018-12-08T09:48:10.813Z,3.50
2018-12-08T09:50:39.842Z,4.20
2018-12-08T09:53:16.752Z,4.20
2018-12-08T09:55:45.807Z,3.53
2018-12-08T09:58:14.822Z,3.67
2018-12-08T10:00:43.889Z,4.23
2018-12-08T10:03:13.012Z,4.37
2018-12-08T10:05:42.044Z,4.27
2018-12-08T10:08:11.054Z,4.00
2018-12-08T10:10:40.107Z,3.93
2018-12-08T10:13:09.210Z,3.37
2018-12-08T10:15:38.290Z,4.00
2018-12-08T10:18:07.389Z,4.13
2018-12-08T10:20:36.442Z,4.03
2018-12-08T10:23:05.722Z,4.13
2018-12-08T10:25:34.764Z,4.00
2018-12-08T10:28:03.864Z,4.37
2018-12-08T10:30:33.068Z,4.43
2018-12-08T10:33:02.081Z,4.17
2018-12-08T10:35:31.098Z,4.93
2018-12-08T10:38:00.245Z,4.50
2018-12-08T10:40:29.767Z,5.10
2018-12-08T10:42:58.878Z,5.00
2018-12-08T10:45:27.933Z,5.40
2018-12-08T10:47:56.960Z,5.20
2018-12-08T10:50:26.032Z,4.60
2018-12-08T10:52:57.058Z,6.23
2018-12-08T10:55:26.314Z,4.87
2018-12-08T10:57:55.386Z,4.90
2018-12-08T11:00:29.605Z,4.97
2018-12-08T11:03:31.099Z,5.30
2018-12-08T11:06:00.154Z,4.73
2018-12-08T11:08:29.194Z,5.60
2018-12-08T11:10:58.245Z,4.67
2018-12-08T11:13:27.444Z,4.70
2018-12-08T11:15:56.578Z,5.03
2018-12-08T11:18:25.621Z,5.30
2018-12-08T11:20:55.735Z,4.97
2018-12-08T11:23:24.885Z,5.90
2018-12-08T11:25:53.919Z,5.97
2018-12-08T11:28:22.925Z,5.00
2018-12-08T11:30:51.981Z,5.70
2018-12-08T11:33:20.992Z,5.37
2018-12-08T11:35:50.280Z,5.87
2018-12-08T11:38:19.329Z,5.70
2018-12-08T11:40:49.797Z,5.60
2018-12-08T11:43:18.935Z,5.00
2018-12-08T11:45:48.140Z,6.10
2018-12-08T11:48:17.157Z,5.70
2018-12-08T11:50:46.275Z,5.70
2018-12-08T11:53:15.383Z,5.67
2018-12-08T11:55:44.426Z,5.30
2018-12-08T11:58:13.422Z,4.87
2018-12-08T12:00:42.449Z,5.30
2018-12-08T12:03:11.489Z,5.03
2018-12-08T12:05:40.573Z,4.73
2018-12-08T12:08:09.607Z,4.77
2018-12-08T12:10:39.074Z,5.23
2018-12-08T12:13:08.217Z,4.50
2018-12-08T12:15:37.550Z,4.77
2018-12-08T12:18:08.571Z,4.87
2018-12-08T12:20:37.731Z,4.70
2018-12-08T12:23:06.958Z,4.87
2018-12-08T12:25:35.999Z,4.67
2018-12-08T12:28:05.183Z,4.43
2018-12-08T12:30:35.752Z,4.80
2018-12-08T12:33:04.976Z,4.60
2018-12-08T12:35:33.990Z,4.53
2018-12-08T12:38:03.002Z,4.70
2018-12-08T12:40:32.052Z,5.00
2018-12-08T12:43:01.105Z,5.20
2018-12-08T12:45:30.147Z,5.33
2018-12-08T12:47:59.198Z,6.23
2018-12-08T12:50:28.298Z,5.37
2018-12-08T12:52:58.657Z,5.47
2018-12-08T12:55:27.737Z,5.67
2018-12-08T12:57:56.762Z,5.47
2018-12-08T13:00:25.847Z,5.20
2018-12-08T13:02:55.183Z,5.50
2018-12-08T13:05:24.165Z,5.50
2018-12-08T13:07:53.224Z,5.60
2018-12-08T13:10:22.280Z,5.93
2018-12-08T13:12:51.328Z,5.67
2018-12-08T13:15:27.022Z,5.47
2018-12-08T13:17:56.028Z,5.30
2018-12-08T13:20:25.203Z,5.80
2018-12-08T13:22:54.472Z,5.27
2018-12-08T13:25:26.038Z,5.13
2018-12-08T13:27:56.337Z,5.93
2018-12-08T13:30:25.485Z,5.63
2018-12-08T13:32:55.767Z,5.67
2018-12-08T13:35:50.614Z,5.70
2018-12-08T13:38:20.103Z,6.67
2018-12-08T13:40:49.474Z,7.03
2018-12-08T13:43:18.676Z,6.90
2018-12-08T13:45:47.714Z,6.43
2018-12-08T13:48:18.565Z,7.00
2018-12-08T13:50:48.152Z,6.20
2018-12-08T13:53:17.216Z,5.93
2018-12-08T13:55:46.345Z,6.00
2018-12-08T13:58:15.621Z,5.63
2018-12-08T14:00:45.775Z,5.70
2018-12-08T14:03:14.927Z,6.43
2018-12-08T14:05:43.936Z,6.13
2018-12-08T14:08:13.019Z,6.67
2018-12-08T14:10:42.062Z,7.17
2018-12-08T14:13:12.150Z,5.80
2018-12-08T14:15:41.452Z,6.20
2018-12-08T14:18:11.067Z,6.30
2018-12-08T14:20:40.231Z,5.70
2018-12-08T14:23:09.283Z,6.43
2018-12-08T14:25:38.393Z,6.73
2018-12-08T14:28:07.931Z,7.10
2018-12-08T14:30:37.971Z,6.97
2018-12-08T14:33:06.994Z,6.80
2018-12-08T14:35:36.059Z,6.83
2018-12-08T14:38:12.108Z,6.50
2018-12-08T14:40:41.133Z,7.37
2018-12-08T14:43:10.311Z,7.67
2018-12-08T14:45:39.518Z,7.27
2018-12-08T14:48:09.541Z,7.00
2018-12-08T14:50:38.590Z,7.60
2018-12-08T14:53:07.664Z,7.10
2018-12-08T14:55:36.805Z,7.23
2018-12-08T14:58:06.006Z,6.93
2018-12-08T15:00:35.069Z,7.43
2018-12-08T15:03:04.401Z,7.40
2018-12-08T15:05:33.606Z,7.40
2018-12-08T15:08:02.923Z,7.13
2018-12-08T15:10:31.947Z,7.90
2018-12-08T15:13:01.031Z,7.67
2018-12-08T15:15:30.150Z,7.77
2018-12-08T15:17:59.189Z,7.20
2018-12-08T15:20:28.435Z,8.07
2018-12-08T15:22:57.502Z,7.70
2018-12-08T15:25:26.725Z,7.53
2018-12-08T15:27:57.343Z,8.10
2018-12-08T15:30:26.387Z,7.80
2018-12-08T15:32:55.822Z,8.23
2018-12-08T15:35:25.960Z,8.20
2018-12-08T15:37:55.059Z,7.60
2018-12-08T15:40:24.090Z,8.00
2018-12-08T15:42:53.102Z,7.57
2018-12-08T15:45:22.266Z,8.93
2018-12-08T15:47:51.518Z,9.10
2018-12-08T15:50:20.874Z,8.40
2018-12-08T15:52:49.932Z,8.30
2018-12-08T15:55:19.171Z,10.03
2018-12-08T15:57:48.314Z,9.40
2018-12-08T16:00:17.521Z,10.23
2018-12-08T16:02:46.765Z,10.83
2018-12-08T16:05:15.831Z,10.43
2018-12-08T16:07:44.855Z,11.70
2018-12-08T16:10:13.923Z,11.67
2018-12-08T16:12:42.990Z,13.07
2018-12-08T16:15:12.412Z,11.97
2018-12-08T16:17:41.719Z,12.10
2018-12-08T16:20:13.127Z,11.70
2018-12-08T16:22:42.739Z,13.03
2018-12-08T16:25:16.263Z,12.60
2018-12-08T16:27:46.436Z,12.33
2018-12-08T16:30:16.169Z,13.67
2018-12-08T16:32:45.909Z,11.83
2018-12-08T16:35:15.521Z,12.97
2018-12-08T16:37:44.729Z,11.97
2018-12-08T16:40:13.865Z,12.63
2018-12-08T16:42:42.970Z,12.03
2018-12-08T16:45:12.050Z,12.43
2018-12-08T16:47:41.152Z,12.77
2018-12-08T16:50:10.790Z,11.77
2018-12-08T16:52:39.847Z,11.83
2018-12-08T16:55:10.193Z,12.50
2018-12-08T16:57:39.477Z,14.77
2018-12-08T17:00:08.948Z,12.90
2018-12-08T17:02:39.251Z,12.50
2018-12-08T17:05:08.638Z,13.37
2018-12-08T17:07:37.815Z,13.73
2018-12-08T17:10:08.093Z,12.90
2018-12-08T17:12:37.317Z,13.63
2018-12-08T17:15:06.646Z,12.20
2018-12-08T17:17:35.889Z,12.23
2018-12-08T17:20:06.923Z,11.83
2018-12-08T17:22:35.974Z,11.87
2018-12-08T17:25:05.634Z,12.30
2018-12-08T17:27:34.786Z,11.80
2018-12-08T17:30:04.379Z,12.10
2018-12-08T17:32:33.693Z,12.47
2018-12-08T17:35:02.748Z,11.97
2018-12-08T17:37:31.894Z,11.97
2018-12-08T17:40:01.035Z,12.30
2018-12-08T17:42:30.678Z,10.60
2018-12-08T17:44:59.787Z,11.87
2018-12-08T17:47:29.107Z,10.83
2018-12-08T17:49:58.393Z,11.13
2018-12-08T17:52:27.418Z,10.97
2018-12-08T17:54:56.463Z,12.20
2018-12-08T17:57:25.495Z,11.77
2018-12-08T17:59:54.583Z,12.10
2018-12-08T18:02:23.590Z,11.80
2018-12-08T18:04:52.658Z,10.87
2018-12-08T18:07:21.866Z,10.67
2018-12-08T18:09:51.007Z,11.53
2018-12-08T18:12:20.219Z,11.50
2018-12-08T18:14:49.304Z,10.50
2018-12-08T18:17:18.386Z,9.93
2018-12-08T18:19:47.481Z,10.23
2018-12-08T18:22:16.588Z,10.63
2018-12-08T18:24:45.683Z,11.10
2018-12-08T18:27:14.853Z,11.03
2018-12-08T18:29:43.956Z,11.20
2018-12-08T18:32:13.014Z,10.87
2018-12-08T18:34:42.286Z,10.23
2018-12-08T18:37:11.345Z,10.73
2018-12-08T18:39:40.810Z,10.47
2018-12-08T18:42:10.034Z,10.83
2018-12-08T18:44:39.204Z,11.23
2018-12-08T18:47:08.268Z,10.83
2018-12-08T18:49:37.366Z,10.87
2018-12-08T18:52:06.436Z,10.57
2018-12-08T18:54:35.501Z,10.10
2018-12-08T18:59:48.698Z,11.23
2018-12-08T19:02:17.755Z,10.90
2018-12-08T19:04:47.077Z,10.90
2018-12-08T19:07:16.095Z,11.67
2018-12-08T19:09:45.167Z,11.07
2018-12-08T19:12:14.322Z,11.40
2018-12-08T19:14:43.338Z,11.60
2018-12-08T19:17:12.431Z,10.77
2018-12-08T19:19:41.567Z,11.63
2018-12-08T19:22:10.641Z,11.30
2018-12-08T19:24:39.917Z,12.23
2018-12-08T19:27:09.190Z,11.87
2018-12-08T19:29:38.693Z,10.83
2018-12-08T19:32:08.013Z,10.70
2018-12-08T19:34:37.234Z,11.90
2018-12-08T19:37:06.354Z,10.97
2018-12-08T19:39:35.460Z,10.97
2018-12-08T19:42:05.008Z,11.77
2018-12-08T19:44:34.450Z,11.20
2018-12-08T19:47:03.572Z,9.87
2018-12-08T19:49:32.718Z,10.57
2018-12-08T19:52:01.793Z,10.67
2018-12-08T19:54:30.834Z,10.67
2018-12-08T19:56:59.869Z,11.67
2018-12-08T19:59:28.933Z,10.97
2018-12-08T20:01:58.008Z,10.53
2018-12-08T20:04:27.166Z,10.60
2018-12-08T20:06:58.560Z,10.27
2018-12-08T20:09:27.985Z,10.73
2018-12-08T20:11:57.113Z,10.53
2018-12-08T20:14:26.121Z,10.73
2018-12-08T20:16:55.200Z,10.10
2018-12-08T20:19:24.317Z,10.73
2018-12-08T20:21:53.434Z,10.17
2018-12-08T20:24:22.529Z,10.10
2018-12-08T20:26:51.645Z,10.27
2018-12-08T20:29:20.871Z,10.07
2018-12-08T20:31:50.109Z,9.63
2018-12-08T20:34:19.150Z,10.97
2018-12-08T20:36:48.230Z,10.80
2018-12-08T20:39:17.285Z,10.47
2018-12-08T20:41:46.890Z,10.60
2018-12-08T20:44:16.007Z,10.03
2018-12-08T20:46:45.139Z,10.10
2018-12-08T20:49:14.225Z,10.03
2018-12-08T20:51:49.988Z,9.97
2018-12-08T20:54:19.267Z,10.57
2018-12-08T20:56:48.349Z,10.20
2018-12-08T20:59:17.398Z,10.00
2018-12-08T21:01:46.441Z,10.07
2018-12-08T21:04:15.533Z,9.63
2018-12-08T21:06:44.831Z,10.00
2018-12-08T21:09:20.155Z,10.13
2018-12-08T21:11:49.699Z,10.03
2018-12-08T21:14:19.493Z,11.23
2018-12-08T21:16:48.500Z,10.20
2018-12-08T21:19:17.606Z,10.20
2018-12-08T21:21:46.748Z,9.97
2018-12-08T21:24:15.789Z,10.93
2018-12-08T21:26:45.392Z,10.43
2018-12-08T21:29:14.888Z,11.20
2018-12-08T21:31:44.093Z,10.47
2018-12-08T21:34:13.109Z,11.33
2018-12-08T21:36:42.338Z,11.10
2018-12-08T21:39:12.778Z,11.03
2018-12-08T21:41:41.944Z,11.57
2018-12-08T21:44:11.194Z,10.47
2018-12-08T21:46:40.485Z,11.13
2018-12-08T21:49:09.566Z,10.90
2018-12-08T21:51:38.624Z,10.73
2018-12-08T21:54:07.684Z,11.33
2018-12-08T21:56:36.867Z,11.90
2018-12-08T21:59:06.186Z,11.60
2018-12-08T22:01:35.600Z,12.00
2018-12-08T22:04:04.647Z,11.43
2018-12-08T22:06:33.690Z,12.27
2018-12-08T22:09:04.487Z,11.67
2018-12-08T22:11:35.546Z,11.83
2018-12-08T22:14:04.719Z,11.50
2018-12-08T22:16:33.737Z,11.83
2018-12-08T22:19:02.791Z,11.57
2018-12-08T22:21:31.815Z,12.90
2018-12-08T22:24:00.866Z,11.40
2018-12-08T22:26:29.968Z,12.50
2018-12-08T22:28:59.007Z,12.30
2018-12-08T22:31:28.046Z,12.00
2018-12-08T22:33:57.143Z,12.03
2018-12-08T22:36:26.197Z,12.10
2018-12-08T22:38:55.315Z,13.63
2018-12-08T22:41:24.453Z,12.17
2018-12-08T22:43:53.494Z,12.70
2018-12-08T22:46:22.718Z,12.27
2018-12-08T22:48:51.815Z,12.87
2018-12-08T22:51:20.879Z,12.97
2018-12-08T22:53:49.941Z,13.23
2018-12-08T22:56:18.974Z,12.70
2018-12-08T22:58:48.041Z,13.27
2018-12-08T23:01:17.149Z,13.43
2018-12-08T23:03:46.634Z,13.63
2018-12-08T23:06:15.996Z,13.77
2018-12-08T23:08:45.005Z,14.23
2018-12-08T23:11:14.154Z,13.63
2018-12-08T23:13:43.170Z,13.43
2018-12-08T23:16:12.495Z,14.13
2018-12-08T23:18:41.514Z,14.60
2018-12-08T23:21:11.006Z,13.50
2018-12-08T23:23:40.146Z,14.93
2018-12-08T23:26:09.249Z,13.97
2018-12-08T23:28:38.474Z,14.13
2018-12-08T23:31:08.035Z,13.73
2018-12-08T23:33:37.358Z,14.03
2018-12-08T23:36:06.410Z,14.53
2018-12-08T23:38:35.445Z,14.43
2018-12-08T23:41:04.607Z,14.57
2018-12-08T23:43:33.901Z,13.53
2018-12-08T23:46:03.022Z,14.17
2018-12-08T23:48:32.154Z,13.10
2018-12-08T23:51:01.425Z,14.37
2018-12-08T23:53:30.476Z,14.43
2018-12-08T23:55:59.774Z,14.50
2018-12-08T23:58:28.875Z,14.17
